Time;durP1;ratioP1;P1;durP2;ratioP2;P2;SDS_P1;SDS_P2;PMS_P1;PMS_P2;Temp;Humidity;BMP_temperature;BMP_pressure;BME280_temperature;BME280_humidity;BME280_pressure;Samples;Min_cycle;Max_cycle;Signal;HPM_P1;HPM_P2
2023/01/03 00:00:32;;;;;;;19.77;16.95;;;9.50;99.90;;;;;;2074793;28;20030;-71
2023/01/03 00:01:33;;;;;;;17.50;15.60;;;9.60;99.90;;;;;;2074949;28;20113;-71
2023/01/03 00:02:34;;;;;;;19.52;16.40;;;9.60;99.90;;;;;;2075808;28;20033;-71
2023/01/03 00:03:34;;;;;;;19.10;16.52;;;9.60;99.90;;;;;;2075814;28;20556;-71
2023/01/03 00:04:35;;;;;;;18.88;16.17;;;9.60;99.90;;;;;;2075197;28;20417;-71
2023/01/03 00:05:35;;;;;;;18.40;16.42;;;9.60;99.90;;;;;;2076215;28;20037;-71
2023/01/03 00:06:40;;;;;;;19.40;15.95;;;9.60;99.90;;;;;;2074235;28;20030;-71
2023/01/03 00:07:40;;;;;;;19.45;16.60;;;9.60;99.90;;;;;;2072951;28;20040;-71
2023/01/03 00:08:41;;;;;;;19.80;16.67;;;9.60;99.90;;;;;;2076726;28;20061;-71
2023/01/03 00:09:41;;;;;;;18.23;16.33;;;9.60;99.90;;;;;;2074302;28;20037;-71
2023/01/03 00:10:42;;;;;;;21.00;16.35;;;9.60;99.90;;;;;;2074265;28;20101;-71
2023/01/03 00:13:04;;;;;;;15.27;13.07;;;9.60;99.90;;;;;;2074394;28;20065;-71
2023/01/03 00:14:06;;;;;;;14.98;13.30;;;9.50;99.90;;;;;;2073949;28;20044;-71
2023/01/03 00:15:07;;;;;;;19.27;15.55;;;9.50;99.90;;;;;;2075357;28;20022;-71
2023/01/03 00:16:16;;;;;;;18.58;15.45;;;9.50;99.90;;;;;;2073840;28;20026;-71
2023/01/03 00:17:18;;;;;;;19.13;16.08;;;9.50;99.90;;;;;;2074402;28;20481;-71
2023/01/03 00:18:19;;;;;;;19.55;16.13;;;9.40;99.90;;;;;;2075106;28;20497;-71
2023/01/03 00:19:20;;;;;;;20.60;16.42;;;9.40;99.90;;;;;;2072658;28;20069;-71
2023/01/03 00:20:21;;;;;;;17.67;15.35;;;9.40;99.90;;;;;;2074820;28;20087;-71
2023/01/03 00:21:22;;;;;;;17.92;15.75;;;9.40;99.90;;;;;;2077476;28;20079;-71
2023/01/03 00:22:22;;;;;;;22.15;16.25;;;9.40;99.90;;;;;;2073662;28;20026;-71
2023/01/03 00:23:23;;;;;;;19.10;15.82;;;9.40;99.90;;;;;;2075217;28;20113;-71
2023/01/03 00:24:24;;;;;;;20.15;16.80;;;9.40;99.90;;;;;;2074670;28;20473;-71
2023/01/03 00:25:25;;;;;;;17.60;15.63;;;9.40;99.90;;;;;;2074382;28;20031;-71
2023/01/03 00:26:26;;;;;;;18.52;15.27;;;9.30;99.90;;;;;;2076324;28;20033;-71
2023/01/03 00:27:27;;;;;;;20.25;16.05;;;9.30;99.90;;;;;;2074593;28;20485;-71
2023/01/03 00:28:27;;;;;;;17.98;15.02;;;9.30;99.90;;;;;;2075455;28;20076;-71
2023/01/03 00:29:28;;;;;;;20.08;14.57;;;9.30;99.90;;;;;;2074949;28;20029;-71
2023/01/03 00:30:29;;;;;;;15.77;14.07;;;9.30;99.90;;;;;;2072487;28;20057;-71
2023/01/03 00:31:29;;;;;;;18.55;14.07;;;9.30;99.90;;;;;;2075228;28;20080;-71
2023/01/03 00:32:30;;;;;;;16.08;13.85;;;9.30;99.90;;;;;;2075350;28;20502;-71
2023/01/03 00:33:31;;;;;;;18.77;13.98;;;9.30;99.90;;;;;;2073750;28;20125;-71
2023/01/03 00:34:32;;;;;;;14.25;12.77;;;9.30;99.90;;;;;;2076163;28;20044;-71
2023/01/03 00:35:33;;;;;;;21.63;13.65;;;9.20;99.90;;;;;;2076673;28;20021;-71
2023/01/03 00:36:34;;;;;;;19.25;12.88;;;9.20;99.90;;;;;;2077398;28;20111;-71
2023/01/03 00:37:34;;;;;;;14.77;10.93;;;9.20;99.90;;;;;;2075895;28;20022;-71
2023/01/03 00:38:36;;;;;;;14.50;11.88;;;9.20;99.90;;;;;;2074464;28;20091;-71
2023/01/03 00:39:36;;;;;;;16.88;11.32;;;9.20;99.90;;;;;;2075073;28;20033;-71
2023/01/03 00:40:37;;;;;;;12.63;10.65;;;9.20;99.90;;;;;;2076467;28;20018;-71
2023/01/03 00:41:38;;;;;;;13.65;10.40;;;9.10;99.90;;;;;;2073293;28;20030;-71
2023/01/03 00:43:58;;;;;;;13.85;9.48;;;9.10;99.90;;;;;;2075044;28;20034;-71
2023/01/03 00:44:58;;;;;;;13.07;9.43;;;9.10;99.90;;;;;;2074818;28;20026;-71
2023/01/03 00:45:59;;;;;;;13.43;8.32;;;9.10;99.90;;;;;;2074280;28;20022;-71
2023/01/03 00:47:00;;;;;;;11.05;8.65;;;9.00;99.90;;;;;;2074875;28;20021;-71
2023/01/03 00:48:01;;;;;;;15.55;8.10;;;9.00;99.90;;;;;;2076356;28;20477;-71
2023/01/03 00:49:02;;;;;;;14.55;8.10;;;9.00;99.90;;;;;;2075122;28;20545;-71
2023/01/03 00:50:03;;;;;;;10.98;7.93;;;9.00;99.90;;;;;;2074488;28;20032;-71
2023/01/03 00:51:12;;;;;;;11.68;7.90;;;9.00;99.90;;;;;;2073449;28;20029;-71
2023/01/03 00:52:13;;;;;;;11.20;6.97;;;9.00;99.90;;;;;;2074991;28;20100;-71
2023/01/03 00:53:13;;;;;;;9.50;6.50;;;9.00;99.90;;;;;;2074501;28;20289;-71
2023/01/03 00:54:15;;;;;;;9.20;6.28;;;9.00;99.90;;;;;;2075191;28;20072;-71
2023/01/03 00:55:15;;;;;;;10.05;6.35;;;9.00;99.90;;;;;;2073024;28;20026;-71
2023/01/03 00:56:18;;;;;;;11.98;6.47;;;9.00;99.90;;;;;;2075117;28;20820;-71
2023/01/03 00:57:19;;;;;;;12.73;6.80;;;8.90;99.90;;;;;;2076003;28;20034;-71
2023/01/03 00:58:19;;;;;;;9.38;6.55;;;8.90;99.90;;;;;;2073048;28;20038;-71
2023/01/03 00:59:20;;;;;;;8.55;5.85;;;8.90;99.90;;;;;;2076219;28;20120;-71
2023/01/03 01:00:21;;;;;;;9.48;5.60;;;8.90;99.90;;;;;;2069258;28;20022;-71
2023/01/03 01:01:28;;;;;;;11.68;6.50;;;8.90;99.90;;;;;;2077843;28;20025;-71
2023/01/03 01:02:28;;;;;;;12.90;6.22;;;8.90;99.90;;;;;;2073097;28;20864;-71
2023/01/03 01:03:29;;;;;;;11.27;6.25;;;8.90;99.90;;;;;;2074418;28;20409;-71
2023/01/03 01:04:31;;;;;;;10.90;6.05;;;8.90;99.90;;;;;;2075055;28;20184;-71
2023/01/03 01:05:32;;;;;;;8.75;6.13;;;8.90;99.90;;;;;;2073290;28;20030;-70
2023/01/03 01:06:35;;;;;;;11.05;6.20;;;8.90;99.90;;;;;;2072886;28;20030;-71
2023/01/03 01:07:35;;;;;;;8.25;5.97;;;8.90;99.90;;;;;;2073989;28;20030;-71
2023/01/03 01:08:36;;;;;;;10.13;6.35;;;8.90;99.90;;;;;;2075874;28;20469;-71
2023/01/03 01:09:36;;;;;;;11.18;6.18;;;8.80;99.90;;;;;;2073010;28;20033;-71
2023/01/03 01:11:00;;;;;;;11.57;6.28;;;8.90;99.90;;;;;;2078836;28;20064;-71
2023/01/03 01:12:02;;;;;;;11.75;6.75;;;8.90;99.90;;;;;;2077472;28;20017;-71
2023/01/03 01:13:02;;;;;;;10.00;6.43;;;8.80;99.90;;;;;;2073765;28;20121;-71
2023/01/03 01:14:18;;;;;;;9.05;6.50;;;8.80;99.90;;;;;;2074272;28;20037;-71
2023/01/03 01:15:19;;;;;;;13.93;7.45;;;8.80;99.90;;;;;;2076403;28;20624;-71
2023/01/03 01:16:30;;;;;;;13.50;7.88;;;8.80;99.90;;;;;;2074486;28;20124;-71
2023/01/03 01:17:30;;;;;;;13.27;7.18;;;8.80;99.90;;;;;;2074896;28;20398;-71
2023/01/03 01:18:32;;;;;;;10.63;7.22;;;8.80;99.90;;;;;;2076346;28;20060;-71
2023/01/03 01:19:38;;;;;;;14.20;6.80;;;8.80;99.90;;;;;;2074937;28;20059;-71
2023/01/03 01:20:38;;;;;;;8.48;6.97;;;8.80;99.90;;;;;;2074843;28;20031;-71
2023/01/03 01:21:39;;;;;;;11.63;7.13;;;8.80;99.90;;;;;;2074876;28;20026;-71
2023/01/03 01:22:40;;;;;;;12.65;7.30;;;8.80;99.90;;;;;;2073151;28;20083;-71
2023/01/03 01:23:41;;;;;;;10.25;6.90;;;8.80;99.90;;;;;;2074303;28;20508;-71
2023/01/03 01:24:41;;;;;;;9.02;6.75;;;8.80;99.90;;;;;;2075259;28;20033;-71
2023/01/03 01:25:42;;;;;;;10.85;6.55;;;8.80;99.90;;;;;;2073653;28;20028;-71
2023/01/03 01:26:44;;;;;;;11.88;6.72;;;8.80;99.90;;;;;;2075223;28;20105;-71
2023/01/03 01:27:44;;;;;;;11.60;7.35;;;8.80;99.90;;;;;;2072979;28;20018;-71
2023/01/03 01:28:46;;;;;;;12.38;7.15;;;8.70;99.90;;;;;;2074291;28;20026;-71
2023/01/03 01:29:46;;;;;;;10.43;7.00;;;8.80;99.90;;;;;;2072463;28;20503;-71
2023/01/03 01:30:47;;;;;;;8.88;6.90;;;8.70;99.90;;;;;;2073211;28;20790;-71
2023/01/03 01:31:48;;;;;;;10.23;6.70;;;8.70;99.90;;;;;;2075532;28;20121;-71
2023/01/03 01:32:48;;;;;;;10.75;5.82;;;8.70;99.90;;;;;;2072683;28;20149;-71
2023/01/03 01:33:50;;;;;;;8.98;6.53;;;8.70;99.90;;;;;;2074310;28;20030;-71
2023/01/03 01:34:50;;;;;;;9.18;6.47;;;8.70;99.90;;;;;;2075181;28;20034;-71
2023/01/03 01:35:51;;;;;;;7.90;6.15;;;8.70;99.90;;;;;;2075018;28;20034;-71
2023/01/03 01:36:52;;;;;;;8.65;6.10;;;8.70;99.90;;;;;;2072953;28;20745;-71
2023/01/03 01:37:52;;;;;;;12.60;6.45;;;8.70;99.90;;;;;;2075106;28;20029;-71
2023/01/03 01:39:01;;;;;;;13.35;7.35;;;8.70;99.90;;;;;;2072924;28;20029;-71
2023/01/03 01:40:02;;;;;;;12.73;6.43;;;8.70;99.90;;;;;;2072924;28;20033;-71
2023/01/03 01:41:02;;;;;;;10.05;6.07;;;8.60;99.90;;;;;;2073169;28;20022;-71
2023/01/03 01:44:53;;;;;;;9.27;6.32;;;8.60;99.90;;;;;;2074327;28;20481;-71
2023/01/03 01:45:54;;;;;;;9.68;6.05;;;8.60;99.90;;;;;;2074916;28;20030;-71
2023/01/03 01:46:55;;;;;;;11.00;6.70;;;8.60;99.90;;;;;;2072006;28;20041;-71
2023/01/03 01:47:59;;;;;;;12.75;6.05;;;8.60;99.90;;;;;;2074981;28;20735;-71
2023/01/03 01:49:05;;;;;;;8.05;6.03;;;8.60;99.90;;;;;;2074706;28;20025;-71
2023/01/03 01:50:32;;;;;;;11.00;6.47;;;8.60;99.90;;;;;;2074332;28;20033;-71
2023/01/03 01:51:34;;;;;;;6.85;5.88;;;8.60;99.90;;;;;;2073142;28;20029;-71
2023/01/03 01:52:38;;;;;;;10.18;5.82;;;8.50;99.90;;;;;;2074919;28;20033;-71
2023/01/03 01:53:41;;;;;;;11.07;6.47;;;8.50;99.90;;;;;;2076553;28;20041;-71
2023/01/03 01:54:42;;;;;;;6.50;5.68;;;8.50;99.90;;;;;;2072860;28;20038;-71
2023/01/03 01:55:46;;;;;;;12.32;6.15;;;8.50;99.90;;;;;;2075970;28;20076;-71
2023/01/03 01:56:50;;;;;;;10.38;6.10;;;8.50;99.90;;;;;;2073050;28;20041;-71
2023/01/03 01:57:51;;;;;;;8.60;6.10;;;8.50;99.90;;;;;;2073646;28;20509;-71
2023/01/03 01:58:54;;;;;;;12.55;5.82;;;8.50;99.90;;;;;;2075955;28;20100;-71
2023/01/03 01:59:54;;;;;;;9.13;6.50;;;8.50;99.90;;;;;;2073115;28;20100;-71
2023/01/03 02:00:56;;;;;;;8.68;5.70;;;8.50;99.90;;;;;;2075396;28;20084;-71
2023/01/03 02:01:57;;;;;;;9.77;6.40;;;8.50;99.90;;;;;;2075247;28;20018;-71
2023/01/03 02:02:58;;;;;;;9.73;6.78;;;8.50;99.90;;;;;;2074169;28;20076;-71
2023/01/03 02:04:04;;;;;;;9.40;6.75;;;8.50;99.90;;;;;;2074859;28;20038;-71
2023/01/03 02:05:07;;;;;;;11.25;6.20;;;8.50;99.90;;;;;;2074659;28;20034;-71
2023/01/03 02:06:11;;;;;;;9.90;7.38;;;8.50;99.90;;;;;;2075266;28;20034;-71
2023/01/03 02:07:11;;;;;;;10.35;6.75;;;8.50;99.90;;;;;;2074476;28;20118;-71
2023/01/03 02:08:12;;;;;;;8.50;5.97;;;8.50;99.90;;;;;;2074526;28;20021;-71
2023/01/03 02:09:13;;;;;;;11.50;5.95;;;8.50;99.90;;;;;;2074031;28;20034;-71
2023/01/03 02:10:14;;;;;;;8.73;5.65;;;8.50;99.90;;;;;;2072534;28;20647;-71
2023/01/03 02:11:23;;;;;;;12.05;6.88;;;8.50;99.90;;;;;;2076565;28;20021;-71
2023/01/03 02:14:01;;;;;;;10.82;6.35;;;8.40;99.90;;;;;;2075366;28;20045;-71
2023/01/03 02:15:29;;;;;;;8.68;6.25;;;8.40;99.90;;;;;;2073494;28;20025;-71
2023/01/03 02:16:54;;;;;;;14.93;7.55;;;8.40;99.90;;;;;;2072295;28;20025;-71
2023/01/03 02:17:57;;;;;;;10.60;6.10;;;8.40;99.90;;;;;;2072778;28;20444;-71
2023/01/03 02:19:36;;;;;;;8.52;6.05;;;8.40;99.90;;;;;;2074596;28;20064;-71
2023/01/03 02:21:14;;;;;;;9.10;6.38;;;8.40;99.90;;;;;;2074064;28;20358;-71
2023/01/03 02:22:17;;;;;;;9.35;6.43;;;8.30;99.90;;;;;;2071269;28;20065;-71
2023/01/03 02:23:21;;;;;;;9.98;6.70;;;8.30;99.90;;;;;;2075373;28;20347;-71
2023/01/03 02:24:41;;;;;;;9.02;6.07;;;8.30;99.90;;;;;;2072962;28;20102;-71
2023/01/03 02:26:09;;;;;;;16.13;6.70;;;8.30;99.90;;;;;;2074549;28;20112;-71
2023/01/03 02:27:21;;;;;;;10.75;6.30;;;8.30;99.90;;;;;;2074143;28;20079;-71
2023/01/03 02:28:36;;;;;;;10.48;6.50;;;8.30;99.90;;;;;;2074449;28;20036;-71
2023/01/03 02:29:49;;;;;;;11.98;6.53;;;8.30;99.90;;;;;;2072149;28;20025;-71
2023/01/03 02:31:03;;;;;;;11.10;6.75;;;8.30;99.90;;;;;;2074563;28;20053;-71
2023/01/03 02:32:26;;;;;;;9.82;6.88;;;8.30;99.90;;;;;;2076632;28;20373;-71
2023/01/03 02:33:49;;;;;;;9.68;6.90;;;8.30;99.90;;;;;;2074832;28;21007;-71
2023/01/03 02:35:04;;;;;;;12.23;7.22;;;8.30;99.90;;;;;;2063718;28;20073;-71
2023/01/03 02:36:40;;;;;;;10.05;7.28;;;8.30;99.90;;;;;;2071344;28;20030;-71
2023/01/03 02:37:47;;;;;;;8.55;6.70;;;8.30;99.90;;;;;;2074786;28;20030;-71
2023/01/03 02:39:31;;;;;;;12.60;7.40;;;8.20;99.90;;;;;;2072900;28;20033;-71
2023/01/03 02:40:38;;;;;;;9.65;6.90;;;8.30;99.90;;;;;;2071940;28;20103;-71
2023/01/03 02:41:42;;;;;;;9.93;7.55;;;8.20;99.90;;;;;;2069197;28;20121;-71
2023/01/03 02:42:56;;;;;;;11.18;7.57;;;8.20;99.90;;;;;;2070326;28;20037;-70
2023/01/03 02:44:37;;;;;;;12.18;7.47;;;8.20;99.90;;;;;;2073131;28;20485;-70
2023/01/03 02:46:26;;;;;;;16.23;8.48;;;8.20;99.90;;;;;;2068305;28;20085;-70
2023/01/03 02:47:32;;;;;;;14.27;8.50;;;8.20;99.90;;;;;;2061032;28;20132;-70
2023/01/03 02:49:05;;;;;;;15.93;8.57;;;8.20;99.90;;;;;;2068079;28;20442;-70
2023/01/03 02:50:09;;;;;;;13.70;8.15;;;8.20;99.90;;;;;;2067223;28;20557;-70
2023/01/03 02:51:17;;;;;;;13.80;8.05;;;8.20;99.90;;;;;;2071389;28;20045;-70
2023/01/03 02:52:24;;;;;;;11.38;8.05;;;8.20;99.90;;;;;;2072132;28;20076;-70
2023/01/03 02:53:31;;;;;;;13.00;8.68;;;8.20;99.90;;;;;;2074292;28;21648;-70
2023/01/03 02:54:39;;;;;;;10.00;8.30;;;8.30;99.90;;;;;;2082421;28;20100;-70
2023/01/03 02:55:42;;;;;;;11.15;7.57;;;8.30;99.90;;;;;;2072194;28;20517;-70
2023/01/03 02:57:12;;;;;;;11.70;8.13;;;8.30;99.90;;;;;;2074348;28;20030;-70
2023/01/03 02:58:22;;;;;;;13.77;8.55;;;8.30;99.90;;;;;;2072587;28;20017;-70
2023/01/03 02:59:50;;;;;;;10.48;8.15;;;8.30;99.90;;;;;;2074081;28;20026;-70
2023/01/03 03:00:55;;;;;;;9.93;8.20;;;8.30;99.90;;;;;;2072147;28;20037;-70
2023/01/03 03:01:56;;;;;;;11.07;8.18;;;8.30;99.90;;;;;;2075229;28;20021;-70
2023/01/03 03:03:03;;;;;;;12.80;8.32;;;8.30;99.90;;;;;;2073522;28;20045;-70
2023/01/03 03:04:06;;;;;;;9.43;8.23;;;8.30;99.90;;;;;;2073025;28;20013;-70
2023/01/03 03:05:11;;;;;;;12.48;8.40;;;8.30;99.90;;;;;;2072963;28;20113;-70
2023/01/03 03:06:43;;;;;;;10.63;8.65;;;8.30;99.90;;;;;;2074350;28;20129;-70
2023/01/03 03:07:44;;;;;;;12.55;8.23;;;8.30;99.90;;;;;;2072096;28;20448;-70
2023/01/03 03:08:45;;;;;;;14.52;8.90;;;8.30;99.90;;;;;;2074256;28;20048;-70
2023/01/03 03:13:58;;;;;;;12.43;8.63;;;8.30;99.90;;;;;;2073963;28;20030;-70
2023/01/03 03:14:59;;;;;;;10.55;8.25;;;8.30;99.90;;;;;;2074688;28;20033;-70
2023/01/03 03:16:06;;;;;;;11.63;8.57;;;8.30;99.90;;;;;;2072509;28;20052;-70
2023/01/03 03:17:12;;;;;;;11.63;8.32;;;8.30;99.90;;;;;;2072325;28;20038;-70
2023/01/03 03:18:21;;;;;;;12.07;8.68;;;8.30;99.90;;;;;;2073029;28;20028;-70
2023/01/03 03:25:20;;;;;;;10.52;8.32;;;8.30;99.90;;;;;;2073019;28;20030;-70
2023/01/03 03:26:28;;;;;;;11.60;7.90;;;8.30;99.90;;;;;;2071778;28;20021;-70
2023/01/03 03:29:03;;;;;;;10.18;8.35;;;8.30;99.90;;;;;;2074401;28;20026;-70
2023/01/03 03:30:09;;;;;;;11.07;8.23;;;8.30;99.90;;;;;;2075232;28;20033;-70
2023/01/03 03:31:30;;;;;;;15.48;9.45;;;8.30;99.90;;;;;;2075822;28;20057;-70
2023/01/03 03:32:33;;;;;;;12.93;9.38;;;8.20;99.90;;;;;;2073765;28;20025;-70
2023/01/03 03:33:45;;;;;;;11.40;9.48;;;8.30;99.90;;;;;;2077770;28;20493;-70
2023/01/03 03:34:48;;;;;;;12.40;9.18;;;8.20;99.90;;;;;;2078558;28;20128;-70
2023/01/03 03:35:56;;;;;;;13.73;10.75;;;8.20;99.90;;;;;;2075971;28;20032;-70
2023/01/03 03:37:04;;;;;;;15.50;9.82;;;8.20;99.90;;;;;;2073231;28;20038;-70
2023/01/03 03:38:08;;;;;;;12.07;10.55;;;8.20;99.90;;;;;;2075777;28;20124;-70
2023/01/03 03:44:59;;;;;;;11.02;9.35;;;8.20;99.90;;;;;;2074295;28;20029;-70
2023/01/03 03:44:59;;;;;;;15.13;11.90;;;8.10;99.90;;;;;;2058868;28;20912;-70
2023/01/03 03:46:01;;;;;;;13.50;12.07;;;8.10;99.90;;;;;;2074790;28;20025;-70
2023/01/03 03:47:30;;;;;;;17.50;12.80;;;8.00;99.90;;;;;;2073725;28;20041;-70
2023/01/03 03:50:05;;;;;;;;;;;8.00;99.90;;;;;;2074384;28;20534;-70
2023/01/03 03:51:13;;;;;;;13.90;12.52;;;7.90;99.90;;;;;;2074852;28;20482;-70
2023/01/03 03:52:21;;;;;;;15.30;13.68;;;7.90;99.90;;;;;;2074387;28;20057;-70
2023/01/03 03:53:27;;;;;;;18.48;14.60;;;7.90;99.90;;;;;;2074753;28;20021;-70
2023/01/03 03:54:30;;;;;;;17.92;14.93;;;7.90;99.90;;;;;;2073884;28;20026;-70
2023/01/03 03:55:40;;;;;;;18.15;13.23;;;7.90;99.90;;;;;;2075075;28;20021;-70
2023/01/03 03:56:45;;;;;;;19.00;14.77;;;7.90;99.90;;;;;;2074444;28;20054;-70
2023/01/03 03:57:55;;;;;;;15.80;14.10;;;7.90;99.90;;;;;;2075236;28;20044;-70
2023/01/03 03:58:59;;;;;;;16.58;13.25;;;7.90;99.90;;;;;;2074221;28;20037;-70
2023/01/03 04:00:06;;;;;;;16.13;14.43;;;7.90;99.90;;;;;;2073022;28;20540;-70
2023/01/03 04:01:09;;;;;;;17.30;14.25;;;7.90;99.90;;;;;;2076401;28;20661;-70
2023/01/03 04:02:12;;;;;;;16.90;15.13;;;7.90;99.90;;;;;;2071944;28;20018;-70
2023/01/03 04:03:14;;;;;;;17.88;14.82;;;7.90;99.90;;;;;;2073868;28;20075;-70
2023/01/03 04:04:22;;;;;;;18.55;14.43;;;7.90;99.90;;;;;;2077289;28;20021;-70
2023/01/03 04:05:26;;;;;;;17.30;14.20;;;7.90;99.90;;;;;;2068851;28;20024;-70
2023/01/03 04:06:32;;;;;;;17.65;14.10;;;7.90;99.90;;;;;;2075016;28;20067;-70
2023/01/03 04:07:33;;;;;;;16.88;14.55;;;7.90;99.90;;;;;;2075210;28;20373;-70
2023/01/03 04:08:34;;;;;;;16.30;14.48;;;7.90;99.90;;;;;;2076348;28;20036;-70
2023/01/03 04:09:35;;;;;;;20.20;15.52;;;7.90;99.90;;;;;;2073481;28;20029;-70
2023/01/03 04:10:36;;;;;;;18.92;15.18;;;7.90;99.90;;;;;;2074453;28;20052;-70
2023/01/03 04:11:37;;;;;;;19.90;14.77;;;7.90;99.90;;;;;;2073864;28;20033;-70
2023/01/03 04:12:38;;;;;;;16.25;14.55;;;7.90;99.90;;;;;;2075518;28;20516;-70
2023/01/03 04:13:38;;;;;;;18.55;14.40;;;7.90;99.90;;;;;;2075181;28;20056;-70
2023/01/03 04:14:39;;;;;;;16.63;14.02;;;7.90;99.90;;;;;;2073908;28;20808;-70
2023/01/03 04:15:39;;;;;;;17.40;15.25;;;7.90;99.90;;;;;;2074131;28;20034;-70
2023/01/03 04:16:40;;;;;;;16.73;14.65;;;7.80;99.90;;;;;;2073402;28;20033;-70
2023/01/03 04:17:41;;;;;;;16.02;12.93;;;7.90;99.90;;;;;;2073494;28;20413;-70
2023/01/03 04:18:42;;;;;;;18.70;13.88;;;7.90;99.90;;;;;;2075764;28;20030;-70
2023/01/03 04:19:42;;;;;;;17.30;13.77;;;7.90;99.90;;;;;;2073115;28;20028;-70
2023/01/03 04:20:43;;;;;;;17.30;13.40;;;7.90;99.90;;;;;;2076676;28;20021;-70
2023/01/03 04:21:43;;;;;;;14.93;13.30;;;7.90;99.90;;;;;;2073364;28;20026;-70
2023/01/03 04:22:44;;;;;;;18.48;14.38;;;7.80;99.90;;;;;;2075473;28;20049;-70
2023/01/03 04:23:44;;;;;;;16.30;12.93;;;7.90;99.90;;;;;;2076570;28;20212;-70
2023/01/03 04:24:45;;;;;;;15.00;13.30;;;7.90;99.90;;;;;;2075013;28;20018;-70
2023/01/03 04:25:47;;;;;;;14.65;13.07;;;7.90;99.90;;;;;;2075146;28;20021;-70
2023/01/03 04:26:48;;;;;;;13.25;11.75;;;7.90;99.90;;;;;;2074161;28;20127;-70
2023/01/03 04:27:49;;;;;;;16.65;12.55;;;7.90;99.90;;;;;;2072235;28;20556;-70
2023/01/03 04:28:49;;;;;;;16.10;14.02;;;7.90;99.90;;;;;;2073357;28;20034;-70
2023/01/03 04:29:50;;;;;;;15.50;13.82;;;7.90;99.90;;;;;;2076169;28;20025;-70
2023/01/03 04:30:50;;;;;;;13.95;12.48;;;7.90;99.90;;;;;;2073424;28;20026;-70
2023/01/03 04:31:51;;;;;;;16.73;12.02;;;7.90;99.90;;;;;;2074923;28;20026;-70
2023/01/03 04:32:51;;;;;;;14.90;13.10;;;7.80;99.90;;;;;;2074743;28;20084;-70
2023/01/03 04:33:52;;;;;;;13.85;10.80;;;7.90;99.90;;;;;;2073852;28;20965;-70
2023/01/03 04:34:53;;;;;;;14.77;13.25;;;7.80;99.90;;;;;;2074178;28;20031;-70
2023/01/03 04:35:53;;;;;;;14.60;12.93;;;7.80;99.90;;;;;;2075797;28;20034;-70
2023/01/03 04:36:54;;;;;;;15.82;13.70;;;7.80;99.90;;;;;;2073166;28;20065;-70
2023/01/03 04:37:55;;;;;;;17.58;15.05;;;7.80;99.90;;;;;;2076188;28;20389;-70
2023/01/03 04:38:56;;;;;;;18.55;13.63;;;7.80;99.90;;;;;;2073647;28;20033;-70
2023/01/03 04:39:56;;;;;;;18.27;14.98;;;7.80;99.90;;;;;;2074479;28;20036;-70
2023/01/03 04:41:04;;;;;;;17.42;14.73;;;7.70;99.90;;;;;;2074939;28;20493;-70
2023/01/03 04:44:00;;;;;;;17.83;15.02;;;7.70;99.90;;;;;;2075051;28;20462;-69
2023/01/03 04:44:44;;;;;;;18.70;15.95;;;7.70;99.90;;;;;;2073974;28;20101;-70
2023/01/03 04:45:49;;;;;;;19.88;17.50;;;7.60;99.90;;;;;;2074773;28;20095;-70
2023/01/03 04:46:50;;;;;;;25.20;16.90;;;7.60;99.90;;;;;;2073937;28;20022;-70
2023/01/03 04:47:52;;;;;;;18.02;16.15;;;7.60;99.90;;;;;;2075837;28;20034;-70
2023/01/03 04:48:52;;;;;;;15.63;14.02;;;7.60;99.90;;;;;;2073074;28;20564;-70
2023/01/03 04:49:53;;;;;;;20.35;17.02;;;7.60;99.90;;;;;;2073252;28;20158;-70
2023/01/03 04:50:56;;;;;;;14.27;12.80;;;7.60;99.90;;;;;;2074596;28;20048;-70
2023/01/03 04:51:57;;;;;;;16.90;14.13;;;7.60;99.90;;;;;;2074437;28;20033;-70
2023/01/03 04:52:58;;;;;;;19.92;17.67;;;7.60;99.90;;;;;;2074561;28;20144;-70
2023/01/03 04:53:59;;;;;;;18.45;16.38;;;7.60;99.90;;;;;;2076438;28;20030;-70
2023/01/03 04:54:59;;;;;;;19.88;16.65;;;7.60;99.90;;;;;;2073244;28;20098;-70
2023/01/03 04:56:00;;;;;;;16.08;13.50;;;7.60;99.90;;;;;;2074649;28;20045;-70
2023/01/03 04:57:00;;;;;;;18.27;16.33;;;7.60;99.90;;;;;;2074279;28;20029;-70
2023/01/03 04:58:01;;;;;;;18.05;15.40;;;7.60;99.90;;;;;;2074940;28;20100;-70
2023/01/03 04:59:03;;;;;;;18.08;16.17;;;7.60;99.90;;;;;;2074298;28;20042;-70
2023/01/03 05:00:04;;;;;;;18.88;16.90;;;7.60;99.90;;;;;;2074613;28;20033;-70
2023/01/03 05:01:08;;;;;;;22.63;18.00;;;7.60;99.90;;;;;;2074495;28;20037;-70
2023/01/03 05:02:09;;;;;;;20.75;18.55;;;7.50;99.90;;;;;;2076094;28;20018;-70
2023/01/03 05:03:10;;;;;;;25.55;17.35;;;7.50;99.90;;;;;;2078503;28;20033;-70
2023/01/03 05:04:10;;;;;;;18.40;16.42;;;7.60;99.90;;;;;;2077260;28;20030;-70
2023/01/03 05:05:11;;;;;;;19.10;16.98;;;7.50;99.90;;;;;;2076262;28;20113;-70
2023/01/03 05:06:12;;;;;;;17.98;16.23;;;7.50;99.90;;;;;;2077761;28;20037;-70
2023/01/03 05:07:12;;;;;;;18.40;16.63;;;7.50;99.90;;;;;;2073858;28;20029;-70
2023/01/03 05:08:13;;;;;;;19.65;17.10;;;7.50;99.90;;;;;;2074541;28;20041;-70
2023/01/03 05:09:13;;;;;;;24.65;17.52;;;7.50;99.90;;;;;;2074773;28;20598;-70
2023/01/03 05:10:14;;;;;;;19.40;17.35;;;7.50;99.90;;;;;;2072286;28;20907;-70
2023/01/03 05:11:15;;;;;;;19.90;17.80;;;7.50;99.90;;;;;;2069400;28;20030;-70
2023/01/03 05:12:16;;;;;;;18.92;14.63;;;7.50;99.90;;;;;;2073598;28;20086;-70
2023/01/03 05:13:16;;;;;;;16.98;14.20;;;7.50;99.90;;;;;;2073226;28;20018;-70
2023/01/03 05:14:17;;;;;;;18.45;16.42;;;7.50;99.90;;;;;;2075697;28;20025;-70
2023/01/03 05:15:17;;;;;;;19.33;15.73;;;7.50;99.90;;;;;;2070203;28;20421;-70
2023/01/03 05:16:18;;;;;;;18.63;15.43;;;7.50;99.90;;;;;;2077878;28;20052;-70
2023/01/03 05:17:19;;;;;;;14.93;13.27;;;7.50;99.90;;;;;;2074887;28;20056;-70
2023/01/03 05:18:20;;;;;;;14.82;13.20;;;7.50;99.90;;;;;;2074549;28;20060;-70
2023/01/03 05:19:20;;;;;;;14.18;12.65;;;7.50;99.90;;;;;;2073983;28;20044;-70
2023/01/03 05:25:49;;;;;;;17.63;15.13;;;7.50;99.90;;;;;;2073208;28;20029;-70
2023/01/03 05:26:51;;;;;;;15.68;12.88;;;7.50;99.90;;;;;;2072836;28;20029;-70
2023/01/03 05:27:51;;;;;;;17.08;14.55;;;7.50;99.90;;;;;;2072749;28;20041;-70
2023/01/03 05:28:54;;;;;;;18.15;14.23;;;7.50;99.90;;;;;;2075743;28;20044;-70
2023/01/03 05:29:55;;;;;;;14.38;12.27;;;7.50;99.90;;;;;;2073152;28;20586;-70
2023/01/03 05:30:59;;;;;;;14.77;12.30;;;7.50;99.90;;;;;;2074099;28;20046;-70
2023/01/03 05:31:59;;;;;;;15.85;13.35;;;7.50;99.90;;;;;;2074216;28;20033;-70
2023/01/03 05:33:00;;;;;;;19.10;13.23;;;7.50;99.90;;;;;;2071492;28;20029;-70
2023/01/03 05:34:00;;;;;;;15.68;12.98;;;7.50;99.90;;;;;;2071510;28;20068;-70
2023/01/03 05:35:01;;;;;;;15.68;12.48;;;7.40;99.90;;;;;;2073748;28;20022;-70
2023/01/03 05:36:02;;;;;;;13.80;12.40;;;7.40;99.90;;;;;;2073081;28;20045;-70
2023/01/03 05:37:02;;;;;;;14.57;11.65;;;7.40;99.90;;;;;;2073054;28;20037;-70
2023/01/03 05:38:03;;;;;;;13.82;11.20;;;7.40;99.90;;;;;;2075727;28;20030;-70
2023/01/03 05:39:04;;;;;;;11.25;9.65;;;7.40;99.90;;;;;;2073595;28;20042;-70
2023/01/03 05:40:05;;;;;;;16.55;10.40;;;7.40;99.90;;;;;;2073035;28;20400;-70
2023/01/03 05:41:06;;;;;;;12.10;9.85;;;7.40;99.90;;;;;;2073608;28;20504;-70
2023/01/03 05:42:07;;;;;;;10.70;9.63;;;7.40;99.90;;;;;;2073913;28;20052;-69
2023/01/03 05:43:07;;;;;;;12.45;9.23;;;7.30;99.90;;;;;;2074876;28;20685;-70
2023/01/03 05:44:08;;;;;;;10.35;8.32;;;7.30;99.90;;;;;;2073946;28;20025;-69
2023/01/03 05:45:09;;;;;;;13.13;9.13;;;7.30;99.90;;;;;;2074937;28;20170;-69
2023/01/03 05:46:09;;;;;;;10.40;8.93;;;7.30;99.90;;;;;;2074819;28;20018;-69
2023/01/03 05:47:10;;;;;;;10.77;8.95;;;7.30;99.90;;;;;;2074002;28;20028;-71
2023/01/03 05:48:10;;;;;;;13.50;9.18;;;7.30;99.90;;;;;;2074201;28;20030;-71
2023/01/03 05:49:11;;;;;;;14.75;9.43;;;7.30;99.90;;;;;;2074781;28;20068;-71
2023/01/03 05:50:11;;;;;;;8.45;7.57;;;7.30;99.90;;;;;;2074483;28;20030;-72
2023/01/03 05:51:13;;;;;;;11.68;8.35;;;7.30;99.90;;;;;;2074632;28;20021;-72
2023/01/03 05:52:13;;;;;;;10.25;7.85;;;7.20;99.90;;;;;;2075134;28;20026;-72
2023/01/03 05:53:14;;;;;;;10.55;9.15;;;7.30;99.90;;;;;;2072497;28;20045;-72
2023/01/03 05:54:16;;;;;;;10.50;7.82;;;7.20;99.90;;;;;;2077238;28;20093;-70
2023/01/03 05:55:17;;;;;;;12.13;8.77;;;7.20;99.90;;;;;;2073741;28;20046;-71
2023/01/03 05:56:17;;;;;;;11.38;8.18;;;7.20;99.90;;;;;;2073128;28;20038;-70
2023/01/03 05:57:18;;;;;;;12.02;7.75;;;7.20;99.90;;;;;;2075465;28;20025;-71
2023/01/03 05:58:18;;;;;;;10.98;7.55;;;7.20;99.90;;;;;;2074511;28;20059;-71
2023/01/03 05:59:20;;;;;;;12.32;7.13;;;7.20;99.90;;;;;;2073458;28;20029;-71
2023/01/03 06:00:20;;;;;;;10.60;8.23;;;7.20;99.90;;;;;;2074901;28;20022;-71
2023/01/03 06:01:21;;;;;;;12.35;8.05;;;7.20;99.90;;;;;;2074452;28;20025;-71
2023/01/03 06:02:21;;;;;;;10.82;8.18;;;7.20;99.90;;;;;;2072784;28;21322;-70
2023/01/03 06:03:22;;;;;;;7.65;6.75;;;7.20;99.90;;;;;;2073478;28;20053;-71
2023/01/03 06:04:22;;;;;;;13.50;7.97;;;7.10;99.90;;;;;;2073005;28;20026;-72